Littleport, United Kingdom
Current Conditions -  °F | °C
As of 3:58 AM on Saturday 20 Dec 2014 (Local Time) from EGUN Reporting Station
Scattered Clouds Scattered Clouds  
Wind Chill: 33°   Ceiling: Unl
Heat Index: 41°   Visibility: 6mi
Dew Point: 36°   Wind: 15mph
Humidity: 81%   Direction: 250°WSW
Pressure: 30.13"   Gusts: NA
Location:  52.46°N, 0.31°E
Report Text: EGUN 200358Z AUTO 25013KT 9999 SCT047 05/02 A3013 RMK AO2 SLP207 T00500020 $
Loading
Personal Weather Stations






























Interactive Weather Map New forecast layout! Learn more

10-Day Weather Forecast

Advertisements
Track Severe Weather on mobile